createdAt,value
2022-10-14T00:01:25.868Z,97.13
2022-10-14T00:03:55.700Z,97.07
2022-10-14T00:06:30.452Z,96.94
2022-10-14T00:09:02.820Z,97.07
2022-10-14T00:11:33.752Z,97.12
2022-10-14T00:14:13.398Z,96.97
2022-10-14T00:16:45.524Z,96.88
2022-10-14T00:19:15.120Z,97.05
2022-10-14T00:21:46.566Z,96.85
2022-10-14T00:24:16.078Z,97.20
2022-10-14T00:26:44.638Z,97.04
2022-10-14T00:29:19.046Z,97.17
2022-10-14T00:31:47.766Z,97.36
2022-10-14T00:34:16.270Z,97.20
2022-10-14T00:36:44.975Z,97.02
2022-10-14T00:39:13.848Z,97.28
2022-10-14T00:41:42.510Z,97.49
2022-10-14T00:44:16.164Z,97.61
2022-10-14T00:46:47.152Z,97.62
2022-10-14T00:49:18.548Z,97.49
2022-10-14T00:52:15.666Z,97.59
2022-10-14T00:54:55.785Z,97.84
2022-10-14T00:57:24.496Z,97.87
2022-10-14T00:59:54.642Z,97.71
2022-10-14T01:02:22.962Z,97.58
2022-10-14T01:04:51.351Z,97.77
2022-10-14T01:07:23.707Z,97.43
2022-10-14T01:10:13.870Z,97.37
2022-10-14T01:13:00.921Z,97.45
2022-10-14T01:15:46.743Z,97.21
2022-10-14T01:18:27.102Z,97.57
2022-10-14T01:21:35.578Z,97.48
2022-10-14T01:24:42.647Z,97.72
2022-10-14T01:27:13.454Z,97.62
2022-10-14T01:30:04.947Z,97.79
2022-10-14T01:33:10.397Z,97.69
2022-10-14T01:35:41.706Z,97.82
2022-10-14T01:38:24.310Z,97.72
2022-10-14T01:41:28.003Z,97.98
2022-10-14T01:44:07.129Z,98.18
2022-10-14T01:46:36.646Z,97.93
2022-10-14T01:49:12.405Z,98.12
2022-10-14T01:51:51.109Z,97.97
2022-10-14T01:54:27.631Z,97.57
2022-10-14T01:57:00.534Z,97.72
2022-10-14T01:59:33.817Z,97.47
2022-10-14T02:02:02.201Z,97.65
2022-10-14T02:04:30.759Z,97.50
2022-10-14T02:07:12.628Z,97.22
2022-10-14T02:09:54.325Z,96.77
2022-10-14T02:13:04.436Z,96.65
2022-10-14T02:15:46.977Z,96.30
2022-10-14T02:18:49.205Z,96.19
2022-10-14T02:21:27.461Z,96.20
2022-10-14T02:24:12.034Z,96.46
2022-10-14T02:26:42.178Z,96.61
2022-10-14T02:29:10.647Z,96.85
2022-10-14T02:31:41.164Z,97.23
2022-10-14T02:34:14.141Z,97.32
2022-10-14T02:36:44.107Z,97.49
2022-10-14T02:39:18.227Z,97.26
2022-10-14T02:41:47.038Z,97.50
2022-10-14T02:44:15.322Z,97.56
2022-10-14T02:46:44.321Z,97.60
2022-10-14T02:49:12.685Z,97.61
2022-10-14T02:51:41.222Z,97.68
2022-10-14T02:54:09.646Z,97.85
2022-10-14T02:56:37.958Z,97.66
2022-10-14T02:59:06.663Z,97.74
2022-10-14T03:01:37.783Z,97.86
2022-10-14T03:04:06.438Z,98.00
2022-10-14T03:06:34.748Z,98.02
2022-10-14T03:09:03.032Z,98.15
2022-10-14T03:16:00.003Z,98.35
2022-10-14T03:43:55.732Z,98.97
2022-10-14T03:46:24.179Z,98.83
2022-10-14T03:48:52.509Z,99.00
2022-10-14T03:51:20.839Z,99.25
2022-10-14T03:53:49.173Z,99.13
2022-10-14T03:56:17.505Z,99.34
2022-10-14T03:58:45.902Z,99.19
2022-10-14T04:01:36.280Z,99.11
2022-10-14T04:04:04.685Z,99.24
2022-10-14T04:06:42.104Z,99.27
2022-10-14T04:09:11.439Z,99.40
2022-10-14T04:11:59.172Z,99.35
2022-10-14T04:14:27.822Z,99.27
2022-10-14T04:16:56.080Z,99.18
2022-10-14T04:19:24.361Z,99.32
2022-10-14T04:21:52.651Z,98.87
2022-10-14T04:24:22.096Z,99.51
2022-10-14T04:26:53.514Z,99.32
2022-10-14T04:29:21.902Z,99.64
2022-10-14T04:31:50.250Z,99.65
2022-10-14T04:34:18.574Z,99.62
2022-10-14T04:36:46.881Z,99.61
2022-10-14T04:39:16.609Z,99.67
2022-10-14T04:41:44.932Z,99.74
2022-10-14T04:44:13.237Z,99.78
2022-10-14T04:46:41.658Z,99.72
2022-10-14T04:52:14.859Z,99.93
2022-10-14T04:54:43.558Z,99.99
2022-10-14T04:57:25.768Z,100.00
2022-10-14T04:59:54.079Z,100.00
2022-10-14T05:02:22.626Z,100.00
2022-10-14T05:05:15.985Z,100.00
2022-10-14T05:07:44.788Z,100.00
2022-10-14T05:10:13.829Z,100.00
2022-10-14T05:12:50.942Z,100.00
2022-10-14T05:15:25.013Z,100.00
2022-10-14T05:17:53.339Z,100.00
2022-10-14T05:20:59.184Z,100.00
2022-10-14T05:23:27.949Z,100.00
2022-10-14T05:25:56.371Z,100.00
2022-10-14T05:28:24.786Z,100.00
2022-10-14T05:30:53.209Z,100.00
2022-10-14T05:36:16.537Z,100.00
2022-10-14T05:38:44.864Z,100.00
2022-10-14T05:41:13.404Z,100.00
2022-10-14T05:44:15.768Z,100.00
2022-10-14T05:46:45.490Z,100.00
2022-10-14T05:50:12.880Z,100.00
2022-10-14T05:52:41.560Z,100.00
2022-10-14T05:55:13.595Z,100.00
2022-10-14T06:00:35.671Z,100.00
2022-10-14T06:03:04.322Z,100.00
2022-10-14T06:05:32.674Z,100.00
2022-10-14T06:08:00.938Z,100.00
2022-10-14T06:10:29.260Z,100.00
2022-10-14T06:12:58.257Z,100.00
2022-10-14T06:15:28.570Z,100.00
2022-10-14T06:17:56.987Z,100.00
2022-10-14T06:20:25.314Z,100.00
2022-10-14T06:22:55.909Z,100.00
2022-10-14T06:25:47.511Z,100.00
2022-10-14T06:28:15.933Z,100.00
2022-10-14T06:30:44.244Z,100.00
2022-10-14T06:33:12.639Z,100.00
2022-10-14T06:35:40.969Z,100.00
2022-10-14T06:38:09.309Z,100.00
2022-10-14T06:40:38.184Z,100.00
2022-10-14T06:43:06.679Z,100.00
2022-10-14T06:45:35.233Z,100.00
2022-10-14T06:48:04.859Z,100.00
2022-10-14T06:50:33.234Z,100.00
2022-10-14T06:53:01.601Z,100.00
2022-10-14T06:55:29.910Z,100.00
2022-10-14T06:57:58.788Z,100.00
2022-10-14T07:00:27.163Z,100.00
2022-10-14T07:02:59.281Z,100.00
2022-10-14T07:06:18.165Z,100.00
2022-10-14T07:08:46.469Z,100.00
2022-10-14T07:11:15.458Z,100.00
2022-10-14T07:13:43.797Z,100.00
2022-10-14T07:16:12.443Z,99.86
2022-10-14T07:18:40.721Z,99.70
2022-10-14T07:21:09.543Z,99.35
2022-10-14T07:26:53.985Z,97.96
2022-10-14T07:29:22.388Z,97.04
2022-10-14T07:31:50.807Z,96.51
2022-10-14T07:34:19.171Z,96.24
2022-10-14T07:36:47.806Z,95.74
2022-10-14T07:39:16.165Z,95.46
2022-10-14T07:41:44.460Z,95.26
2022-10-14T07:44:14.213Z,94.93
2022-10-14T07:46:46.998Z,94.32
2022-10-14T07:49:21.433Z,93.90
2022-10-14T07:51:50.356Z,93.20
2022-10-14T07:54:24.256Z,92.91
2022-10-14T07:56:52.876Z,92.43
2022-10-14T07:59:22.673Z,92.62
2022-10-14T08:01:52.953Z,92.04
2022-10-14T08:04:21.875Z,91.68
2022-10-14T08:06:50.245Z,91.39
2022-10-14T08:09:19.519Z,91.30
2022-10-14T08:11:48.059Z,90.90
2022-10-14T08:14:16.786Z,90.98
2022-10-14T08:16:45.268Z,90.41
2022-10-14T08:19:14.915Z,90.20
2022-10-14T08:21:44.544Z,90.21
2022-10-14T08:24:13.414Z,90.31
2022-10-14T08:26:54.441Z,90.20
2022-10-14T08:29:23.644Z,89.89
2022-10-14T08:31:55.317Z,90.33
2022-10-14T08:34:24.582Z,90.41
2022-10-14T08:36:53.099Z,90.92
2022-10-14T08:39:22.241Z,90.99
2022-10-14T08:42:19.041Z,90.96
2022-10-14T08:44:58.597Z,89.86
2022-10-14T08:47:36.965Z,88.89
2022-10-14T08:50:29.521Z,88.73
2022-10-14T08:53:05.536Z,88.14
2022-10-14T08:55:49.814Z,87.71
2022-10-14T08:58:29.673Z,87.35
2022-10-14T09:00:58.723Z,86.97
2022-10-14T09:03:33.948Z,86.95
2022-10-14T09:06:12.041Z,86.75
2022-10-14T09:08:47.475Z,86.73
2022-10-14T09:11:22.797Z,86.49
2022-10-14T09:13:55.620Z,86.85
2022-10-14T09:16:36.572Z,86.31
2022-10-14T09:19:20.075Z,85.39
2022-10-14T09:21:53.504Z,85.04
2022-10-14T09:24:22.031Z,84.66
2022-10-14T09:27:09.963Z,84.35
2022-10-14T09:30:10.395Z,84.28
2022-10-14T09:32:44.470Z,84.24
2022-10-14T09:35:32.396Z,83.94
2022-10-14T09:38:00.980Z,83.69
2022-10-14T09:40:46.855Z,83.52
2022-10-14T09:43:24.116Z,83.16
2022-10-14T09:46:11.011Z,83.34
2022-10-14T09:48:47.842Z,83.52
2022-10-14T09:51:33.746Z,83.34
2022-10-14T09:54:05.441Z,83.41
2022-10-14T09:56:41.893Z,82.95
2022-10-14T09:59:24.100Z,82.63
2022-10-14T10:02:00.575Z,82.09
2022-10-14T10:04:47.018Z,82.01
2022-10-14T10:07:33.153Z,80.97
2022-10-14T10:10:18.371Z,79.19
2022-10-14T10:12:47.522Z,77.46
2022-10-14T10:15:23.030Z,76.96
2022-10-14T10:17:51.728Z,75.91
2022-10-14T10:20:32.011Z,75.38
2022-10-14T10:23:26.199Z,74.63
2022-10-14T10:25:54.708Z,74.56
2022-10-14T10:28:32.134Z,73.70
2022-10-14T10:31:19.396Z,73.93
2022-10-14T10:34:06.899Z,74.86
2022-10-14T10:36:50.830Z,75.43
2022-10-14T10:39:51.369Z,75.64
2022-10-14T10:42:35.879Z,74.83
2022-10-14T10:45:16.052Z,74.48
2022-10-14T10:47:49.824Z,74.50
2022-10-14T10:50:40.890Z,74.30
2022-10-14T10:53:22.863Z,74.06
2022-10-14T10:56:05.460Z,73.85
2022-10-14T10:58:55.197Z,73.79
2022-10-14T11:01:57.510Z,73.08
2022-10-14T11:04:45.314Z,69.90
2022-10-14T11:08:03.937Z,69.36
2022-10-14T11:15:02.930Z,70.91
2022-10-14T11:18:02.886Z,71.31
2022-10-14T11:21:15.112Z,71.75
2022-10-14T11:23:50.027Z,72.00
2022-10-14T11:26:27.264Z,72.06
2022-10-14T11:29:12.393Z,71.32
2022-10-14T11:31:57.382Z,71.08
2022-10-14T11:35:09.465Z,71.51
2022-10-14T11:38:05.142Z,71.00
2022-10-14T11:41:28.423Z,70.06
2022-10-14T11:44:17.098Z,70.01
2022-10-14T11:46:52.564Z,69.71
2022-10-14T11:49:27.789Z,69.91
2022-10-14T11:52:04.168Z,70.03
2022-10-14T11:54:55.903Z,70.27
2022-10-14T11:57:41.815Z,69.65
2022-10-14T12:00:22.206Z,69.40
2022-10-14T12:03:20.653Z,69.64
2022-10-14T12:06:36.935Z,69.85
2022-10-14T12:09:07.509Z,69.68
2022-10-14T12:11:54.485Z,69.54
2022-10-14T12:14:43.766Z,69.60
2022-10-14T12:17:30.709Z,69.94
2022-10-14T12:20:18.820Z,69.48
2022-10-14T12:22:49.681Z,68.85
2022-10-14T12:25:22.256Z,68.64
2022-10-14T12:27:52.253Z,68.96
2022-10-14T12:30:42.082Z,68.46
2022-10-14T12:33:13.509Z,68.52
2022-10-14T12:36:01.037Z,68.82
2022-10-14T12:38:34.505Z,69.43
2022-10-14T12:41:43.818Z,68.64
2022-10-14T12:44:18.744Z,68.57
2022-10-14T12:46:49.013Z,68.35
2022-10-14T12:49:34.298Z,68.30
2022-10-14T12:52:09.375Z,68.78
2022-10-14T12:54:41.321Z,68.99
2022-10-14T12:57:30.767Z,69.39
2022-10-14T13:00:04.348Z,69.80
2022-10-14T13:02:46.186Z,70.07
2022-10-14T13:05:37.541Z,70.41
2022-10-14T13:08:29.828Z,70.47
2022-10-14T13:11:02.469Z,70.60
2022-10-14T13:13:47.804Z,71.22
2022-10-14T13:16:24.682Z,70.92
2022-10-14T13:18:57.937Z,70.49
2022-10-14T13:21:38.189Z,70.59
2022-10-14T13:24:18.963Z,70.43
2022-10-14T13:26:56.227Z,70.26
2022-10-14T13:29:35.920Z,70.02
2022-10-14T13:32:24.795Z,69.84
2022-10-14T13:35:23.080Z,70.35
2022-10-14T13:38:14.087Z,70.02
2022-10-14T13:40:49.932Z,69.99
2022-10-14T13:43:40.168Z,70.59
2022-10-14T13:48:52.649Z,70.62
2022-10-14T13:51:39.310Z,70.67
2022-10-14T13:54:20.750Z,71.17
2022-10-14T14:00:39.602Z,71.24
2022-10-14T14:02:56.758Z,70.99
2022-10-14T14:11:17.754Z,71.76
2022-10-14T14:13:59.996Z,71.93
2022-10-14T14:16:40.163Z,72.96
2022-10-14T14:19:18.391Z,73.54
2022-10-14T14:21:46.863Z,73.22
2022-10-14T14:24:26.223Z,73.09
2022-10-14T14:26:56.593Z,73.38
2022-10-14T14:29:33.449Z,73.50
2022-10-14T14:32:07.576Z,73.39
2022-10-14T14:34:39.008Z,73.23
2022-10-14T14:37:34.420Z,73.32
2022-10-14T14:40:25.062Z,73.37
2022-10-14T14:42:57.834Z,73.60
2022-10-14T14:45:32.843Z,73.33
2022-10-14T14:48:06.374Z,73.32
2022-10-14T14:50:43.948Z,73.90
2022-10-14T14:53:29.653Z,74.02
2022-10-14T14:55:58.470Z,74.52
2022-10-14T14:58:49.243Z,74.56
2022-10-14T15:01:30.090Z,74.36
2022-10-14T15:04:13.342Z,75.18
2022-10-14T15:06:50.747Z,75.35
2022-10-14T15:09:35.116Z,76.20
2022-10-14T15:12:07.371Z,77.01
2022-10-14T15:14:51.996Z,77.28
2022-10-14T15:17:42.051Z,77.27
2022-10-14T15:22:49.910Z,78.43
2022-10-14T15:25:24.073Z,78.78
2022-10-14T15:28:03.041Z,78.79
2022-10-14T15:30:41.642Z,78.76
2022-10-14T15:33:22.620Z,79.53
2022-10-14T15:36:04.495Z,79.71
2022-10-14T15:38:33.217Z,80.05
2022-10-14T15:41:01.530Z,79.95
2022-10-14T15:43:30.056Z,80.23
2022-10-14T15:46:17.787Z,80.50
2022-10-14T15:48:53.463Z,80.49
2022-10-14T15:51:23.458Z,80.68
2022-10-14T15:53:52.169Z,80.55
2022-10-14T15:56:21.334Z,80.34
2022-10-14T15:58:50.405Z,80.06
2022-10-14T16:01:21.962Z,79.83
2022-10-14T16:03:53.009Z,79.65
2022-10-14T16:06:22.782Z,79.47
2022-10-14T16:08:51.382Z,79.28
2022-10-14T16:11:31.039Z,79.43
2022-10-14T16:13:59.376Z,79.37
2022-10-14T16:16:40.906Z,79.04
2022-10-14T16:19:09.291Z,79.33
2022-10-14T16:21:38.248Z,79.51
2022-10-14T16:24:07.627Z,79.35
2022-10-14T16:26:37.076Z,79.70
2022-10-14T16:29:05.500Z,79.96
2022-10-14T16:31:33.896Z,80.10
2022-10-14T16:34:02.712Z,80.17
2022-10-14T16:36:31.181Z,80.23
2022-10-14T16:39:00.471Z,80.52
2022-10-14T16:41:30.929Z,80.73
2022-10-14T16:43:59.256Z,81.24
2022-10-14T16:46:41.509Z,81.18
2022-10-14T16:49:10.208Z,81.42
2022-10-14T16:51:38.643Z,81.83
2022-10-14T16:54:07.219Z,82.15
2022-10-14T16:56:53.912Z,82.28
2022-10-14T16:59:23.168Z,82.39
2022-10-14T17:01:52.040Z,82.96
2022-10-14T17:04:21.050Z,82.92
2022-10-14T17:06:49.605Z,83.20
2022-10-14T17:09:19.278Z,82.76
2022-10-14T17:11:49.767Z,82.78
2022-10-14T17:14:22.013Z,82.85
2022-10-14T17:16:52.528Z,83.01
2022-10-14T17:19:21.722Z,83.34
2022-10-14T17:21:50.115Z,83.47
2022-10-14T17:24:18.550Z,83.53
2022-10-14T17:26:47.504Z,83.52
2022-10-14T17:29:16.170Z,83.48
2022-10-14T17:31:44.942Z,82.88
2022-10-14T17:34:14.044Z,82.75
2022-10-14T17:36:42.548Z,82.90
2022-10-14T17:39:18.904Z,82.65
2022-10-14T17:41:53.012Z,82.25
2022-10-14T17:44:21.308Z,82.52
2022-10-14T17:46:49.650Z,82.49
2022-10-14T17:49:18.142Z,82.51
2022-10-14T17:51:46.489Z,82.24
2022-10-14T17:54:15.068Z,82.24
2022-10-14T17:56:43.458Z,82.08
2022-10-14T17:59:14.391Z,81.73
2022-10-14T18:02:01.556Z,81.69
2022-10-14T18:04:30.820Z,81.90
2022-10-14T18:06:59.604Z,82.24
2022-10-14T18:09:27.977Z,81.96
2022-10-14T18:12:13.090Z,82.37
2022-10-14T18:14:41.869Z,82.16
2022-10-14T18:17:13.777Z,82.20
2022-10-14T18:19:42.535Z,82.29
2022-10-14T18:22:12.026Z,82.05
2022-10-14T18:24:40.384Z,81.76
2022-10-14T18:27:09.197Z,81.80
2022-10-14T18:29:39.184Z,82.05
2022-10-14T18:32:07.579Z,81.97
2022-10-14T18:34:35.986Z,82.08
2022-10-14T18:37:04.384Z,82.24
2022-10-14T18:39:32.721Z,82.54
2022-10-14T18:42:01.156Z,82.34
2022-10-14T18:44:29.511Z,82.41
2022-10-14T18:46:57.997Z,82.74
2022-10-14T18:49:26.343Z,82.37
2022-10-14T18:51:55.365Z,81.35
2022-10-14T18:54:24.969Z,81.29
2022-10-14T18:56:55.087Z,81.10
2022-10-14T18:59:25.039Z,81.28
2022-10-14T19:01:54.184Z,81.44
2022-10-14T19:04:26.826Z,81.55
2022-10-14T19:06:55.324Z,81.04
2022-10-14T19:09:29.163Z,81.55
2022-10-14T19:11:59.013Z,81.54
2022-10-14T19:14:28.894Z,81.22
2022-10-14T19:16:57.585Z,81.53
2022-10-14T19:19:26.007Z,81.79
2022-10-14T19:21:56.657Z,81.84
2022-10-14T19:24:25.084Z,81.46
2022-10-14T19:26:54.422Z,81.42
2022-10-14T19:29:22.898Z,81.41
2022-10-14T19:31:54.482Z,81.48
2022-10-14T19:51:23.774Z,81.67
2022-10-14T19:53:52.274Z,81.76
2022-10-14T19:56:21.345Z,82.00
2022-10-14T19:58:53.938Z,82.15
2022-10-14T20:01:24.495Z,82.20
2022-10-14T20:03:57.552Z,82.04
2022-10-14T20:06:27.375Z,82.18
2022-10-14T20:08:55.733Z,82.37
2022-10-14T20:11:25.070Z,82.25
2022-10-14T20:13:53.577Z,82.46
2022-10-14T20:16:22.088Z,82.82
2022-10-14T20:18:50.532Z,82.99
2022-10-14T20:21:18.991Z,83.04
2022-10-14T20:23:47.378Z,83.31
2022-10-14T20:26:22.113Z,83.15
2022-10-14T20:28:51.312Z,82.63
2022-10-14T20:31:25.140Z,83.03
2022-10-14T20:33:53.935Z,83.67
2022-10-14T20:36:23.610Z,83.76
2022-10-14T20:38:52.391Z,84.06
2022-10-14T20:41:24.477Z,84.16
2022-10-14T20:43:53.848Z,84.11
2022-10-14T20:46:24.120Z,84.37
2022-10-14T20:48:59.438Z,84.09
2022-10-14T20:51:28.073Z,84.16
2022-10-14T20:54:02.704Z,84.40
2022-10-14T20:56:34.337Z,84.57
2022-10-14T20:59:06.229Z,84.45
2022-10-14T21:01:36.754Z,84.85
2022-10-14T21:04:07.622Z,84.61
2022-10-14T21:06:36.557Z,84.68
2022-10-14T21:09:04.802Z,85.06
2022-10-14T21:11:33.125Z,85.17
2022-10-14T21:14:02.025Z,85.53
2022-10-14T21:16:33.780Z,85.84
2022-10-14T21:19:11.260Z,86.19
2022-10-14T21:21:42.596Z,86.58
2022-10-14T21:24:15.670Z,87.08
2022-10-14T21:26:44.509Z,87.09
2022-10-14T21:29:12.935Z,87.11
2022-10-14T21:31:41.401Z,88.63
2022-10-14T21:34:10.694Z,89.48
2022-10-14T21:36:40.467Z,90.59
2022-10-14T21:39:16.170Z,91.16
2022-10-14T21:41:44.907Z,92.17
2022-10-14T21:44:17.837Z,93.62
2022-10-14T21:46:46.386Z,95.41
2022-10-14T21:49:15.096Z,96.08
2022-10-14T21:51:43.779Z,97.11
2022-10-14T21:54:12.781Z,98.01
2022-10-14T21:56:41.282Z,98.78
2022-10-14T21:59:09.721Z,99.36
2022-10-14T22:01:38.118Z,100.00
2022-10-14T22:04:07.945Z,100.00
2022-10-14T22:06:37.384Z,100.00
2022-10-14T22:09:08.562Z,100.00
2022-10-14T22:11:42.693Z,100.00
2022-10-14T22:14:17.851Z,100.00
2022-10-14T22:16:47.855Z,100.00
2022-10-14T22:19:16.370Z,100.00
2022-10-14T22:21:46.244Z,100.00
2022-10-14T22:24:14.765Z,100.00
2022-10-14T22:26:43.649Z,100.00
2022-10-14T22:29:14.899Z,100.00
2022-10-14T22:31:43.659Z,100.00
2022-10-14T22:34:15.196Z,100.00
2022-10-14T22:36:43.857Z,100.00
2022-10-14T22:39:16.078Z,100.00
2022-10-14T22:41:44.685Z,100.00
2022-10-14T22:44:13.019Z,100.00
2022-10-14T22:46:42.627Z,100.00
2022-10-14T22:49:10.971Z,100.00
2022-10-14T22:51:41.469Z,100.00
2022-10-14T22:54:10.621Z,100.00
2022-10-14T22:56:39.541Z,100.00
2022-10-14T22:59:12.912Z,100.00
2022-10-14T23:01:43.668Z,100.00
2022-10-14T23:04:12.732Z,100.00
2022-10-14T23:06:43.728Z,100.00
2022-10-14T23:09:12.608Z,100.00
2022-10-14T23:11:41.175Z,100.00
2022-10-14T23:14:09.621Z,100.00
2022-10-14T23:16:38.110Z,100.00
2022-10-14T23:19:06.644Z,100.00
2022-10-14T23:21:37.894Z,100.00
2022-10-14T23:24:12.793Z,100.00
2022-10-14T23:26:41.495Z,100.00
2022-10-14T23:29:12.599Z,100.00
2022-10-14T23:31:41.662Z,100.00
2022-10-14T23:34:14.257Z,100.00
2022-10-14T23:36:42.893Z,100.00
2022-10-14T23:39:11.688Z,100.00
2022-10-14T23:41:40.195Z,100.00
2022-10-14T23:44:08.713Z,100.00
2022-10-14T23:46:37.062Z,100.00
2022-10-14T23:49:14.282Z,100.00
2022-10-14T23:51:53.199Z,100.00
2022-10-14T23:54:21.842Z,100.00
2022-10-14T23:56:50.251Z,100.00
2022-10-14T23:59:18.804Z,100.00
